createdAt,value
2022-12-26T00:04:56.894Z,96871.44
2022-12-26T00:10:00.228Z,96859.19
2022-12-26T00:15:02.267Z,96848.13
2022-12-26T00:20:05.282Z,96830.81
2022-12-26T00:25:09.098Z,96814.06
2022-12-26T00:30:11.793Z,96827.81
2022-12-26T00:35:13.726Z,96847.78
2022-12-26T00:40:17.453Z,96828.41
2022-12-26T00:45:19.479Z,96846.66
2022-12-26T00:50:21.433Z,96837.47
2022-12-26T00:55:24.709Z,96858.28
2022-12-26T01:00:26.545Z,96837.16
2022-12-26T01:05:28.716Z,96830.09
2022-12-26T01:10:32.022Z,96821.78
2022-12-26T01:15:33.995Z,96809.69
2022-12-26T01:20:37.968Z,96813.03
2022-12-26T01:26:18.651Z,96811.13
2022-12-26T01:31:03.782Z,96800.09
2022-12-26T01:36:06.250Z,96789.38
2022-12-26T01:41:22.020Z,96814.22
2022-12-26T01:46:29.551Z,96827.19
2022-12-26T01:51:36.587Z,96844.34
2022-12-26T01:56:43.396Z,96827.47
2022-12-26T02:01:50.644Z,96839.19
2022-12-26T02:06:52.972Z,96839.00
2022-12-26T02:12:35.720Z,96832.88
2022-12-26T02:17:23.852Z,96808.81
2022-12-26T02:22:58.397Z,96823.84
2022-12-26T02:28:25.527Z,96825.78
2022-12-26T02:33:42.975Z,96818.53
2022-12-26T02:38:59.629Z,96813.19
2022-12-26T02:44:31.166Z,96789.31
2022-12-26T02:50:05.320Z,96753.13
2022-12-26T02:55:31.046Z,96746.16
2022-12-26T03:00:55.335Z,96728.53
2022-12-26T03:06:21.854Z,96709.69
2022-12-26T03:11:46.686Z,96707.78
2022-12-26T03:17:11.651Z,96709.47
2022-12-26T03:22:30.472Z,96721.91
2022-12-26T03:27:33.910Z,96741.59
2022-12-26T03:32:42.630Z,96743.28
2022-12-26T03:37:52.745Z,96758.13
2022-12-26T03:43:21.869Z,96749.16
2022-12-26T03:48:50.138Z,96744.88
2022-12-26T03:54:16.430Z,96764.19
2022-12-26T03:59:41.900Z,96737.78
2022-12-26T04:05:04.622Z,96744.66
2022-12-26T04:10:30.376Z,96712.91
2022-12-26T04:16:00.312Z,96727.56
2022-12-26T04:21:31.492Z,96738.88
2022-12-26T04:26:57.954Z,96735.25
2022-12-26T04:32:25.790Z,96727.31
2022-12-26T04:37:48.827Z,96739.78
2022-12-26T04:43:49.867Z,96745.75
2022-12-26T04:48:53.392Z,96761.72
2022-12-26T04:53:55.392Z,96773.09
2022-12-26T04:58:59.520Z,96752.56
2022-12-26T05:04:19.944Z,96778.03
2022-12-26T05:09:34.172Z,96794.81
2022-12-26T05:14:37.618Z,96785.44
2022-12-26T05:19:58.017Z,96762.28
2022-12-26T05:25:32.464Z,96768.22
2022-12-26T05:30:35.921Z,96735.66
2022-12-26T05:35:38.295Z,96753.84
2022-12-26T05:40:40.092Z,96731.94
2022-12-26T05:45:43.407Z,96724.91
2022-12-26T05:50:45.371Z,96742.66
2022-12-26T05:55:47.287Z,96786.66
2022-12-26T06:00:50.573Z,96792.78
2022-12-26T06:05:52.401Z,96821.88
2022-12-26T06:10:54.431Z,96831.94
2022-12-26T06:15:58.614Z,96819.63
2022-12-26T06:21:04.265Z,96802.53
2022-12-26T06:26:09.016Z,96825.19
2022-12-26T06:31:15.920Z,96813.84
2022-12-26T06:36:21.739Z,96805.47
2022-12-26T06:41:25.044Z,96803.22
2022-12-26T06:46:28.472Z,96783.44
2022-12-26T06:51:30.498Z,96777.44
2022-12-26T06:56:33.278Z,96800.47
2022-12-26T07:01:36.931Z,96820.78
2022-12-26T07:06:39.411Z,96821.66
2022-12-26T07:11:43.782Z,96809.84
2022-12-26T07:16:47.449Z,96781.75
2022-12-26T07:21:49.469Z,96790.34
2022-12-26T07:26:51.573Z,96792.53
2022-12-26T07:31:54.943Z,96796.06
2022-12-26T07:36:57.042Z,96792.47
2022-12-26T07:41:59.409Z,96792.75
2022-12-26T07:47:02.851Z,96822.78
2022-12-26T07:52:05.313Z,96826.00
2022-12-26T07:57:46.335Z,96854.59
2022-12-26T08:02:30.892Z,96860.00
2022-12-26T08:07:33.203Z,96866.41
2022-12-26T08:12:35.459Z,96851.72
2022-12-26T08:17:38.807Z,96856.91
2022-12-26T08:22:40.852Z,96839.59
2022-12-26T08:27:43.126Z,96870.69
2022-12-26T08:32:46.670Z,96877.06
2022-12-26T08:37:48.735Z,96866.78
2022-12-26T08:43:12.190Z,96862.09
2022-12-26T08:48:15.295Z,96865.44
2022-12-26T08:53:17.262Z,96866.31
2022-12-26T08:58:19.303Z,96870.66
2022-12-26T09:03:22.807Z,96889.75
2022-12-26T09:08:24.959Z,96893.75
2022-12-26T09:13:26.938Z,96920.84
2022-12-26T09:18:31.687Z,96913.41
2022-12-26T09:23:35.085Z,96918.84
2022-12-26T09:28:37.842Z,96917.31
2022-12-26T09:33:41.832Z,96918.56
2022-12-26T09:38:44.692Z,96899.06
2022-12-26T09:43:57.586Z,96887.38
2022-12-26T09:49:04.551Z,96867.44
2022-12-26T09:54:11.713Z,96856.72
2022-12-26T09:59:15.862Z,96899.56
2022-12-26T10:04:28.963Z,96890.34
2022-12-26T10:09:45.446Z,96891.09
2022-12-26T10:14:51.722Z,96874.69
2022-12-26T10:20:13.638Z,96873.47
2022-12-26T10:25:18.117Z,96841.88
2022-12-26T10:30:23.501Z,96842.00
2022-12-26T10:35:32.139Z,96833.59
2022-12-26T10:40:39.153Z,96849.13
2022-12-26T10:45:50.516Z,96832.28
2022-12-26T10:50:54.128Z,96831.38
2022-12-26T10:55:57.142Z,96832.94
2022-12-26T11:01:30.449Z,96838.69
2022-12-26T11:06:38.507Z,96834.38
2022-12-26T11:11:46.621Z,96826.19
2022-12-26T11:16:49.416Z,96841.25
2022-12-26T11:21:52.746Z,96851.06
2022-12-26T11:27:18.640Z,96860.63
2022-12-26T11:32:20.862Z,96853.75
2022-12-26T11:37:29.811Z,96841.63
2022-12-26T11:42:32.153Z,96828.34
2022-12-26T11:47:34.179Z,96819.91
2022-12-26T11:52:51.719Z,96821.97
2022-12-26T11:57:58.899Z,96810.81
2022-12-26T12:03:01.357Z,96800.31
2022-12-26T12:08:21.367Z,96814.50
2022-12-26T12:13:44.799Z,96801.06
2022-12-26T12:18:57.296Z,96800.94
2022-12-26T12:24:20.275Z,96790.97
2022-12-26T12:29:42.655Z,96794.38
2022-12-26T12:35:06.623Z,96796.41
2022-12-26T12:40:26.916Z,96785.00
2022-12-26T12:45:32.836Z,96806.47
2022-12-26T12:50:41.498Z,96791.41
2022-12-26T12:56:04.755Z,96776.91
2022-12-26T13:01:11.065Z,96791.03
2022-12-26T13:06:17.777Z,96793.00
2022-12-26T13:11:26.531Z,96783.38
2022-12-26T13:16:32.546Z,96791.88
2022-12-26T13:21:37.488Z,96797.44
2022-12-26T13:26:43.800Z,96796.31
2022-12-26T13:31:46.608Z,96784.47
2022-12-26T13:36:50.219Z,96781.41
2022-12-26T13:42:14.883Z,96791.03
2022-12-26T13:47:34.877Z,96799.25
2022-12-26T13:52:40.073Z,96812.59
2022-12-26T13:57:45.047Z,96788.44
2022-12-26T14:08:33.266Z,96794.56
2022-12-26T14:14:01.375Z,96816.50
2022-12-26T14:19:12.397Z,96811.75
2022-12-26T14:24:31.004Z,96801.91
2022-12-26T14:29:45.911Z,96809.28
2022-12-26T14:34:59.273Z,96813.28
2022-12-26T14:40:17.955Z,96806.94
2022-12-26T14:45:42.432Z,96825.94
2022-12-26T14:50:46.843Z,96813.75
2022-12-26T14:55:50.986Z,96815.44
2022-12-26T15:00:55.880Z,96819.78
2022-12-26T15:06:30.430Z,96801.28
2022-12-26T15:11:50.739Z,96796.50
2022-12-26T15:17:06.738Z,96802.31
2022-12-26T15:22:37.206Z,96803.94
2022-12-26T15:28:25.044Z,96791.81
2022-12-26T15:33:38.835Z,96788.66
2022-12-26T15:38:49.240Z,96790.09
2022-12-26T15:44:03.876Z,96781.78
2022-12-26T15:49:24.424Z,96796.25
2022-12-26T15:54:49.202Z,96786.25
2022-12-26T16:00:09.742Z,96793.38
2022-12-26T16:05:38.075Z,96796.59
2022-12-26T16:10:40.318Z,96805.72
2022-12-26T16:15:44.969Z,96806.97
2022-12-26T16:21:10.001Z,96818.31
2022-12-26T16:26:18.571Z,96819.38
2022-12-26T16:31:23.357Z,96831.34
2022-12-26T16:36:31.888Z,96856.63
2022-12-26T16:41:38.257Z,96857.13
2022-12-26T16:46:40.676Z,96865.13
2022-12-26T16:51:47.749Z,96858.75
2022-12-26T16:56:51.918Z,96877.09
2022-12-26T17:01:58.171Z,96867.94
2022-12-26T17:07:06.308Z,96858.75
2022-12-26T17:12:19.042Z,96847.72
2022-12-26T17:17:31.008Z,96841.00
2022-12-26T17:22:35.368Z,96821.09
2022-12-26T17:27:37.426Z,96773.84
2022-12-26T17:32:42.720Z,96763.25
2022-12-26T17:37:50.077Z,96769.63
2022-12-26T17:42:54.095Z,96769.94
2022-12-26T17:47:57.151Z,96761.00
2022-12-26T17:53:05.294Z,96770.81
2022-12-26T17:58:11.765Z,96762.09
2022-12-26T18:03:13.919Z,96763.16
2022-12-26T18:08:27.465Z,96766.34
2022-12-26T18:13:29.529Z,96758.59
2022-12-26T18:18:34.934Z,96764.53
2022-12-26T18:23:39.019Z,96782.03
2022-12-26T18:28:41.008Z,96776.63
2022-12-26T18:33:43.033Z,96804.06
2022-12-26T18:38:46.403Z,96821.72
2022-12-26T18:43:48.405Z,96837.84
2022-12-26T18:48:53.840Z,96836.72
2022-12-26T18:53:57.257Z,96859.34
2022-12-26T18:58:59.304Z,96821.19
2022-12-26T19:04:01.400Z,96820.38
2022-12-26T19:09:05.376Z,96798.75
2022-12-26T19:14:08.688Z,96802.03
2022-12-26T19:19:10.629Z,96821.16
2022-12-26T19:24:15.112Z,96837.56
2022-12-26T19:29:17.150Z,96846.41
2022-12-26T19:34:19.141Z,96835.91
2022-12-26T19:39:22.663Z,96847.81
2022-12-26T19:44:24.770Z,96846.59
2022-12-26T19:49:33.463Z,96851.44
2022-12-26T19:54:37.690Z,96859.13
2022-12-26T19:59:39.723Z,96846.69
2022-12-26T20:04:41.800Z,96843.66
2022-12-26T20:09:45.168Z,96846.16
2022-12-26T20:14:47.304Z,96823.94
2022-12-26T20:19:50.179Z,96825.28
2022-12-26T20:24:55.684Z,96836.97
2022-12-26T20:29:57.761Z,96837.91
2022-12-26T20:34:59.904Z,96845.31
2022-12-26T20:40:03.803Z,96846.81
2022-12-26T20:45:07.077Z,96850.53
2022-12-26T20:50:09.848Z,96849.69
2022-12-26T20:55:13.816Z,96846.06
2022-12-26T21:00:18.709Z,96857.53
2022-12-26T21:05:20.820Z,96874.59
2022-12-26T21:10:24.307Z,96879.47
2022-12-26T21:15:26.322Z,96875.41
2022-12-26T21:20:28.452Z,96888.91
2022-12-26T21:25:33.193Z,96872.38
2022-12-26T21:30:35.226Z,96872.97
2022-12-26T21:35:37.408Z,96874.41
2022-12-26T21:40:43.158Z,96872.44
2022-12-26T21:45:45.244Z,96872.78
2022-12-26T21:50:47.217Z,96867.22
2022-12-26T21:55:50.507Z,96865.88
2022-12-26T22:00:52.453Z,96866.50
2022-12-26T22:05:54.726Z,96853.03
2022-12-26T22:11:16.596Z,96858.84
2022-12-26T22:16:19.832Z,96846.41
2022-12-26T22:21:22.244Z,96863.59
2022-12-26T22:26:26.346Z,96860.69
2022-12-26T22:31:31.544Z,96866.91
2022-12-26T22:36:34.036Z,96872.78
2022-12-26T22:41:37.995Z,96875.53
2022-12-26T22:46:40.317Z,96877.34
2022-12-26T22:51:42.383Z,96870.28
2022-12-26T22:56:45.711Z,96864.50
2022-12-26T23:01:47.729Z,96852.00
2022-12-26T23:06:50.163Z,96847.03
2022-12-26T23:12:12.672Z,96842.19
2022-12-26T23:17:37.206Z,96840.75
2022-12-26T23:22:39.655Z,96840.91
2022-12-26T23:28:01.701Z,96839.34
2022-12-26T23:33:03.810Z,96856.50
2022-12-26T23:38:05.820Z,96844.69
2022-12-26T23:43:09.171Z,96838.50
2022-12-26T23:48:11.885Z,96834.59
2022-12-26T23:53:13.849Z,96825.25
2022-12-26T23:58:17.228Z,96823.19
